Terminal Aerodrome Forecast
Issued by NWS Paducah, KY

Home | Current Version | Previous Version | Text Only | Print | Product List | Glossary Off
Versions: 1 2 3 4 5 6 7 8 9 10 11 12 13 14 15 16 17 18 19 20 21 22 23 24

000
FTUS43 KPAH 211120
TAFPAH
TAF
KPAH 211120Z 2112/2212 VRB03KT P6SM VCSH SCT040 BKN110
      TEMPO 2114/2117 5SM -SHRA
     FM211800 17005KT P6SM VCSH FEW025 BKN080
      TEMPO 2120/2124 4SM -TSRA BKN025CB
     FM220000 18004KT P6SM FEW035 BKN100=

USA.gov is the U.S. government's official web portal to all federal, state and local government web resources and services.